<?xml version='1.0' encoding='UTF-8'?><gpx version="1.1" creator="JPX - https://github.com/jenetics/jpx" xmlns="http://www.topografix.com/GPX/1/1"><trk><trkseg><trkpt lat="43.6172348" lon="11.8138877"><ele>310.0</ele><time>2026-04-06T08:29:51.945Z</time></trkpt><trkpt lat="43.617137" lon="11.813969"><ele>310.0</ele><time>2026-04-06T08:29:52.926Z</time></trkpt><trkpt lat="43.6170286" lon="11.8140472"><ele>310.0</ele><time>2026-04-06T08:29:53.939Z</time></trkpt><trkpt lat="43.6169097" lon="11.8141357"><ele>310.0</ele><time>2026-04-06T08:29:54.93Z</time></trkpt><trkpt lat="43.6167721" lon="11.8142332"><ele>310.0</ele><time>2026-04-06T08:29:55.94Z</time></trkpt><trkpt lat="43.6166298" lon="11.8143338"><ele>310.0</ele><time>2026-04-06T08:29:56.926Z</time></trkpt><trkpt lat="43.6165044" lon="11.8144242"><ele>310.0</ele><time>2026-04-06T08:29:57.978Z</time></trkpt><trkpt lat="43.6163822" lon="11.8145105"><ele>310.0</ele><time>2026-04-06T08:29:58.951Z</time></trkpt><trkpt lat="43.6162645" lon="11.8145829"><ele>309.75</ele><time>2026-04-06T08:29:59.94Z</time></trkpt><trkpt lat="43.6161433" lon="11.8146507"><ele>309.5</ele><time>2026-04-06T08:30:00.938Z</time></trkpt><trkpt lat="43.6160175" lon="11.8147168"><ele>309.25</ele><time>2026-04-06T08:30:01.939Z</time></trkpt><trkpt lat="43.6158883" lon="11.814775"><ele>309.0</ele><time>2026-04-06T08:30:02.939Z</time></trkpt><trkpt lat="43.6157573" lon="11.8148262"><ele>309.0</ele><time>2026-04-06T08:30:03.946Z</time></trkpt><trkpt lat="43.6156349" lon="11.8148722"><ele>309.0</ele><time>2026-04-06T08:30:04.96Z</time></trkpt><trkpt lat="43.61552" lon="11.814917"><ele>309.0</ele><time>2026-04-06T08:30:05.949Z</time></trkpt><trkpt lat="43.6154159" lon="11.8149543"><ele>309.0</ele><time>2026-04-06T08:30:06.928Z</time></trkpt><trkpt lat="43.6153196" lon="11.8149835"><ele>309.59999999999997</ele><time>2026-04-06T08:30:07.938Z</time></trkpt><trkpt lat="43.6152403" lon="11.8150116"><ele>310.2</ele><time>2026-04-06T08:30:08.939Z</time></trkpt><trkpt lat="43.6151426" lon="11.8150875"><ele>310.79999999999995</ele><time>2026-04-06T08:30:10.939Z</time></trkpt><trkpt lat="43.6151021" lon="11.815174"><ele>311.4</ele><time>2026-04-06T08:30:11.936Z</time></trkpt><trkpt lat="43.6150497" lon="11.8152891"><ele>312.0</ele><time>2026-04-06T08:30:12.944Z</time></trkpt><trkpt lat="43.6150126" lon="11.8154842"><ele>312.0</ele><time>2026-04-06T08:30:13.932Z</time></trkpt><trkpt lat="43.6149751" lon="11.8156917"><ele>312.0</ele><time>2026-04-06T08:30:14.94Z</time></trkpt><trkpt lat="43.6149387" lon="11.8159232"><ele>312.0</ele><time>2026-04-06T08:30:15.945Z</time></trkpt><trkpt lat="43.6149056" lon="11.8161322"><ele>312.6</ele><time>2026-04-06T08:30:16.931Z</time></trkpt><trkpt lat="43.6148769" lon="11.8163274"><ele>313.2</ele><time>2026-04-06T08:30:17.934Z</time></trkpt><trkpt lat="43.614856" lon="11.8164746"><ele>313.8</ele><time>2026-04-06T08:30:18.926Z</time></trkpt><trkpt lat="43.6148401" lon="11.8166009"><ele>314.4</ele><time>2026-04-06T08:30:19.933Z</time></trkpt><trkpt lat="43.6148223" lon="11.8166942"><ele>315.0</ele><time>2026-04-06T08:30:20.935Z</time></trkpt><trkpt lat="43.6147867" lon="11.8167711"><ele>317.4</ele><time>2026-04-06T08:30:21.97Z</time></trkpt><trkpt lat="43.6147273" lon="11.8168199"><ele>319.8</ele><time>2026-04-06T08:30:22.947Z</time></trkpt><trkpt lat="43.614657" lon="11.8168685"><ele>322.20000000000005</ele><time>2026-04-06T08:30:23.955Z</time></trkpt><trkpt lat="43.614558" lon="11.8168592"><ele>324.6</ele><time>2026-04-06T08:30:24.942Z</time></trkpt><trkpt lat="43.6144465" lon="11.8168533"><ele>327.0</ele><time>2026-04-06T08:30:25.924Z</time></trkpt><trkpt lat="43.6143277" lon="11.816849"><ele>329.0</ele><time>2026-04-06T08:30:26.93Z</time></trkpt><trkpt lat="43.6142048" lon="11.8168617"><ele>331.0</ele><time>2026-04-06T08:30:27.943Z</time></trkpt><trkpt lat="43.6140842" lon="11.8169127"><ele>333.0</ele><time>2026-04-06T08:30:28.94Z</time></trkpt><trkpt lat="43.6139639" lon="11.8169687"><ele>335.0</ele><time>2026-04-06T08:30:29.925Z</time></trkpt><trkpt lat="43.6138436" lon="11.8170425"><ele>335.0</ele><time>2026-04-06T08:30:30.932Z</time></trkpt><trkpt lat="43.6137251" lon="11.8171402"><ele>335.0</ele><time>2026-04-06T08:30:31.931Z</time></trkpt><trkpt lat="43.6136075" lon="11.8172496"><ele>335.0</ele><time>2026-04-06T08:30:32.95Z</time></trkpt><trkpt lat="43.6134998" lon="11.817381"><ele>335.0</ele><time>2026-04-06T08:30:33.936Z</time></trkpt><trkpt lat="43.6134045" lon="11.8175349"><ele>340.6666666666667</ele><time>2026-04-06T08:30:34.943Z</time></trkpt><trkpt lat="43.6133078" lon="11.8176962"><ele>346.3333333333333</ele><time>2026-04-06T08:30:35.926Z</time></trkpt><trkpt lat="43.6132193" lon="11.8178796"><ele>352.0</ele><time>2026-04-06T08:30:36.94Z</time></trkpt><trkpt lat="43.6131313" lon="11.818063"><ele>352.0</ele><time>2026-04-06T08:30:37.953Z</time></trkpt><trkpt lat="43.6130436" lon="11.818252"><ele>352.0</ele><time>2026-04-06T08:30:38.937Z</time></trkpt><trkpt lat="43.6129585" lon="11.8184467"><ele>352.0</ele><time>2026-04-06T08:30:39.956Z</time></trkpt><trkpt lat="43.612875" lon="11.8186449"><ele>350.3333333333333</ele><time>2026-04-06T08:30:40.935Z</time></trkpt><trkpt lat="43.6127901" lon="11.818855"><ele>348.6666666666667</ele><time>2026-04-06T08:30:41.944Z</time></trkpt><trkpt lat="43.6127055" lon="11.8190749"><ele>347.0</ele><time>2026-04-06T08:30:43Z</time></trkpt><trkpt lat="43.6126202" lon="11.8192874"><ele>353.6666666666667</ele><time>2026-04-06T08:30:43.916Z</time></trkpt><trkpt lat="43.6125253" lon="11.8195075"><ele>360.3333333333333</ele><time>2026-04-06T08:30:44.92Z</time></trkpt><trkpt lat="43.6124289" lon="11.8197204"><ele>367.0</ele><time>2026-04-06T08:30:45.918Z</time></trkpt><trkpt lat="43.6123367" lon="11.8199299"><ele>367.0</ele><time>2026-04-06T08:30:46.917Z</time></trkpt><trkpt lat="43.6122489" lon="11.8201364"><ele>367.0</ele><time>2026-04-06T08:30:47.92Z</time></trkpt><trkpt lat="43.6121649" lon="11.8203453"><ele>367.0</ele><time>2026-04-06T08:30:48.924Z</time></trkpt><trkpt lat="43.6120795" lon="11.8205465"><ele>366.0</ele><time>2026-04-06T08:30:49.924Z</time></trkpt><trkpt lat="43.6119984" lon="11.8207372"><ele>365.0</ele><time>2026-04-06T08:30:50.905Z</time></trkpt><trkpt lat="43.6119243" lon="11.8209019"><ele>364.0</ele><time>2026-04-06T08:30:51.927Z</time></trkpt><trkpt lat="43.6118636" lon="11.8210377"><ele>363.0</ele><time>2026-04-06T08:30:52.924Z</time></trkpt><trkpt lat="43.6118098" lon="11.8211701"><ele>365.5</ele><time>2026-04-06T08:30:53.913Z</time></trkpt><trkpt lat="43.6117744" lon="11.821295"><ele>368.0</ele><time>2026-04-06T08:30:54.916Z</time></trkpt><trkpt lat="43.6117748" lon="11.8213998"><ele>370.5</ele><time>2026-04-06T08:30:55.913Z</time></trkpt><trkpt lat="43.6118162" lon="11.821481"><ele>373.0</ele><time>2026-04-06T08:30:56.996Z</time></trkpt><trkpt lat="43.6118818" lon="11.8215178"><ele>375.5</ele><time>2026-04-06T08:30:57.926Z</time></trkpt><trkpt lat="43.6119643" lon="11.8215241"><ele>378.0</ele><time>2026-04-06T08:30:58.915Z</time></trkpt><trkpt lat="43.6120672" lon="11.8214801"><ele>378.75</ele><time>2026-04-06T08:30:59.922Z</time></trkpt><trkpt lat="43.6121613" lon="11.8213881"><ele>379.5</ele><time>2026-04-06T08:31:00.975Z</time></trkpt><trkpt lat="43.6122444" lon="11.8212757"><ele>380.25</ele><time>2026-04-06T08:31:01.903Z</time></trkpt><trkpt lat="43.612329" lon="11.8211174"><ele>381.0</ele><time>2026-04-06T08:31:02.92Z</time></trkpt><trkpt lat="43.6124161" lon="11.820933"><ele>381.0</ele><time>2026-04-06T08:31:03.902Z</time></trkpt><trkpt lat="43.6125037" lon="11.8207347"><ele>381.0</ele><time>2026-04-06T08:31:04.919Z</time></trkpt><trkpt lat="43.6125853" lon="11.8205666"><ele>381.0</ele><time>2026-04-06T08:31:05.998Z</time></trkpt><trkpt lat="43.6126575" lon="11.8204338"><ele>381.0</ele><time>2026-04-06T08:31:06.965Z</time></trkpt><trkpt lat="43.6127277" lon="11.8203141"><ele>381.0</ele><time>2026-04-06T08:31:07.94Z</time></trkpt><trkpt lat="43.6128032" lon="11.8202514"><ele>381.0</ele><time>2026-04-06T08:31:09.02Z</time></trkpt><trkpt lat="43.6129104" lon="11.8203131"><ele>381.0</ele><time>2026-04-06T08:31:10.929Z</time></trkpt><trkpt lat="43.612924" lon="11.8204219"><ele>381.0</ele><time>2026-04-06T08:31:11.941Z</time></trkpt><trkpt lat="43.6128969" lon="11.8205499"><ele>381.0</ele><time>2026-04-06T08:31:12.934Z</time></trkpt><trkpt lat="43.6128717" lon="11.8206683"><ele>385.0</ele><time>2026-04-06T08:31:13.937Z</time></trkpt><trkpt lat="43.6128492" lon="11.8207967"><ele>389.0</ele><time>2026-04-06T08:31:14.938Z</time></trkpt><trkpt lat="43.6128408" lon="11.8209344"><ele>393.0</ele><time>2026-04-06T08:31:15.936Z</time></trkpt><trkpt lat="43.6128371" lon="11.8210785"><ele>397.0</ele><time>2026-04-06T08:31:16.926Z</time></trkpt><trkpt lat="43.6128372" lon="11.821213"><ele>401.0</ele><time>2026-04-06T08:31:17.943Z</time></trkpt><trkpt lat="43.6128575" lon="11.821314"><ele>402.8333333333333</ele><time>2026-04-06T08:31:18.944Z</time></trkpt><trkpt lat="43.6129484" lon="11.8214187"><ele>404.66666666666663</ele><time>2026-04-06T08:31:20.936Z</time></trkpt><trkpt lat="43.6130113" lon="11.821432"><ele>406.5</ele><time>2026-04-06T08:31:21.95Z</time></trkpt><trkpt lat="43.6130746" lon="11.8213744"><ele>408.33333333333337</ele><time>2026-04-06T08:31:22.941Z</time></trkpt><trkpt lat="43.6131297" lon="11.8212818"><ele>410.1666666666667</ele><time>2026-04-06T08:31:23.929Z</time></trkpt><trkpt lat="43.6131835" lon="11.821177"><ele>412.0</ele><time>2026-04-06T08:31:24.928Z</time></trkpt><trkpt lat="43.6132623" lon="11.8210722"><ele>408.33333333333337</ele><time>2026-04-06T08:31:26.009Z</time></trkpt><trkpt lat="43.6133685" lon="11.8209307"><ele>404.66666666666663</ele><time>2026-04-06T08:31:26.939Z</time></trkpt><trkpt lat="43.613478" lon="11.8207628"><ele>401.0</ele><time>2026-04-06T08:31:27.938Z</time></trkpt><trkpt lat="43.6135708" lon="11.82062"><ele>400.99999999999994</ele><time>2026-04-06T08:31:28.95Z</time></trkpt><trkpt lat="43.6136337" lon="11.8205401"><ele>401.0</ele><time>2026-04-06T08:31:29.951Z</time></trkpt><trkpt lat="43.6137036" lon="11.8205018"><ele>401.0</ele><time>2026-04-06T08:31:30.984Z</time></trkpt><trkpt lat="43.6138094" lon="11.8205558"><ele>401.0</ele><time>2026-04-06T08:31:32.953Z</time></trkpt><trkpt lat="43.6138313" lon="11.8206595"><ele>400.99999999999994</ele><time>2026-04-06T08:31:33.936Z</time></trkpt><trkpt lat="43.6138178" lon="11.8207477"><ele>401.0</ele><time>2026-04-06T08:31:34.989Z</time></trkpt><trkpt lat="43.6137925" lon="11.8208284"><ele>402.0</ele><time>2026-04-06T08:31:35.949Z</time></trkpt><trkpt lat="43.6137464" lon="11.8209131"><ele>403.0</ele><time>2026-04-06T08:31:36.966Z</time></trkpt><trkpt lat="43.6137026" lon="11.8210188"><ele>404.0</ele><time>2026-04-06T08:31:37.937Z</time></trkpt><trkpt lat="43.6136614" lon="11.821142"><ele>405.0</ele><time>2026-04-06T08:31:38.941Z</time></trkpt><trkpt lat="43.6136294" lon="11.8212732"><ele>406.0</ele><time>2026-04-06T08:31:39.99Z</time></trkpt><trkpt lat="43.613605" lon="11.8214266"><ele>407.5</ele><time>2026-04-06T08:31:40.936Z</time></trkpt><trkpt lat="43.6135891" lon="11.8216255"><ele>409.0</ele><time>2026-04-06T08:31:41.934Z</time></trkpt><trkpt lat="43.6135818" lon="11.821843"><ele>410.5</ele><time>2026-04-06T08:31:42.944Z</time></trkpt><trkpt lat="43.6135725" lon="11.8220347"><ele>412.0</ele><time>2026-04-06T08:31:43.937Z</time></trkpt><trkpt lat="43.6135558" lon="11.8222014"><ele>414.25</ele><time>2026-04-06T08:31:44.942Z</time></trkpt><trkpt lat="43.6135262" lon="11.8223563"><ele>416.5</ele><time>2026-04-06T08:31:45.942Z</time></trkpt><trkpt lat="43.613477" lon="11.8225149"><ele>418.75</ele><time>2026-04-06T08:31:46.936Z</time></trkpt><trkpt lat="43.6134193" lon="11.8226975"><ele>421.0</ele><time>2026-04-06T08:31:47.923Z</time></trkpt><trkpt lat="43.6133515" lon="11.8229146"><ele>423.75</ele><time>2026-04-06T08:31:48.944Z</time></trkpt><trkpt lat="43.6132891" lon="11.8231164"><ele>426.5</ele><time>2026-04-06T08:31:49.952Z</time></trkpt><trkpt lat="43.6132297" lon="11.8232871"><ele>429.25</ele><time>2026-04-06T08:31:50.933Z</time></trkpt><trkpt lat="43.6131661" lon="11.8234476"><ele>432.0</ele><time>2026-04-06T08:31:51.94Z</time></trkpt><trkpt lat="43.6130957" lon="11.823609"><ele>432.5</ele><time>2026-04-06T08:31:52.941Z</time></trkpt><trkpt lat="43.6129992" lon="11.8237586"><ele>433.0</ele><time>2026-04-06T08:31:53.932Z</time></trkpt><trkpt lat="43.6129034" lon="11.8238879"><ele>433.5</ele><time>2026-04-06T08:31:54.943Z</time></trkpt><trkpt lat="43.6128159" lon="11.824004"><ele>434.0</ele><time>2026-04-06T08:31:55.941Z</time></trkpt><trkpt lat="43.6127295" lon="11.8241084"><ele>434.0</ele><time>2026-04-06T08:31:56.928Z</time></trkpt><trkpt lat="43.6126462" lon="11.8241966"><ele>434.0</ele><time>2026-04-06T08:31:57.966Z</time></trkpt><trkpt lat="43.6125501" lon="11.824271"><ele>434.0</ele><time>2026-04-06T08:31:58.944Z</time></trkpt><trkpt lat="43.612438" lon="11.8243133"><ele>434.0</ele><time>2026-04-06T08:31:59.938Z</time></trkpt><trkpt lat="43.6123098" lon="11.8243423"><ele>434.75</ele><time>2026-04-06T08:32:00.938Z</time></trkpt><trkpt lat="43.6121615" lon="11.8243429"><ele>435.5</ele><time>2026-04-06T08:32:01.929Z</time></trkpt><trkpt lat="43.6120139" lon="11.8243214"><ele>436.25</ele><time>2026-04-06T08:32:02.948Z</time></trkpt><trkpt lat="43.6118891" lon="11.824267"><ele>437.0</ele><time>2026-04-06T08:32:03.925Z</time></trkpt><trkpt lat="43.6117857" lon="11.8242115"><ele>437.0</ele><time>2026-04-06T08:32:04.94Z</time></trkpt><trkpt lat="43.6117054" lon="11.8241672"><ele>437.00000000000006</ele><time>2026-04-06T08:32:05.947Z</time></trkpt><trkpt lat="43.6115913" lon="11.8242076"><ele>437.00000000000006</ele><time>2026-04-06T08:32:07.932Z</time></trkpt><trkpt lat="43.611546" lon="11.824291"><ele>437.0</ele><time>2026-04-06T08:32:08.964Z</time></trkpt><trkpt lat="43.611511" lon="11.8244045"><ele>437.0</ele><time>2026-04-06T08:32:09.929Z</time></trkpt><trkpt lat="43.6114783" lon="11.8245542"><ele>441.3333333333333</ele><time>2026-04-06T08:32:10.929Z</time></trkpt><trkpt lat="43.6114459" lon="11.8247686"><ele>445.66666666666663</ele><time>2026-04-06T08:32:11.947Z</time></trkpt><trkpt lat="43.6113938" lon="11.8249946"><ele>450.0</ele><time>2026-04-06T08:32:12.925Z</time></trkpt><trkpt lat="43.6113314" lon="11.8252062"><ele>448.0</ele><time>2026-04-06T08:32:13.932Z</time></trkpt><trkpt lat="43.6112568" lon="11.8253828"><ele>446.0</ele><time>2026-04-06T08:32:14.949Z</time></trkpt><trkpt lat="43.6111894" lon="11.825566"><ele>444.0</ele><time>2026-04-06T08:32:15.919Z</time></trkpt><trkpt lat="43.6111273" lon="11.8257704"><ele>447.0</ele><time>2026-04-06T08:32:16.922Z</time></trkpt><trkpt lat="43.6110791" lon="11.8259874"><ele>450.0</ele><time>2026-04-06T08:32:17.929Z</time></trkpt><trkpt lat="43.6110185" lon="11.8261845"><ele>453.0</ele><time>2026-04-06T08:32:18.95Z</time></trkpt><trkpt lat="43.6109679" lon="11.8263478"><ele>456.0</ele><time>2026-04-06T08:32:19.933Z</time></trkpt><trkpt lat="43.6109313" lon="11.8264914"><ele>456.0</ele><time>2026-04-06T08:32:20.933Z</time></trkpt><trkpt lat="43.6108937" lon="11.8266744"><ele>456.0</ele><time>2026-04-06T08:32:21.956Z</time></trkpt><trkpt lat="43.6108666" lon="11.8268724"><ele>456.0</ele><time>2026-04-06T08:32:22.978Z</time></trkpt><trkpt lat="43.6108296" lon="11.8270343"><ele>456.0</ele><time>2026-04-06T08:32:23.957Z</time></trkpt><trkpt lat="43.6108035" lon="11.827161"><ele>458.20000000000005</ele><time>2026-04-06T08:32:24.972Z</time></trkpt><trkpt lat="43.6107727" lon="11.8272759"><ele>460.40000000000003</ele><time>2026-04-06T08:32:25.964Z</time></trkpt><trkpt lat="43.6107188" lon="11.8273692"><ele>462.6</ele><time>2026-04-06T08:32:26.951Z</time></trkpt><trkpt lat="43.6106572" lon="11.8274507"><ele>464.8</ele><time>2026-04-06T08:32:27.95Z</time></trkpt><trkpt lat="43.6105827" lon="11.8275076"><ele>467.0</ele><time>2026-04-06T08:32:28.969Z</time></trkpt><trkpt lat="43.6104837" lon="11.8275756"><ele>472.66666666666663</ele><time>2026-04-06T08:32:29.979Z</time></trkpt><trkpt lat="43.610346" lon="11.8276489"><ele>478.33333333333337</ele><time>2026-04-06T08:32:30.937Z</time></trkpt><trkpt lat="43.610177" lon="11.8277442"><ele>484.0</ele><time>2026-04-06T08:32:31.918Z</time></trkpt><trkpt lat="43.6100105" lon="11.8278125"><ele>484.5</ele><time>2026-04-06T08:32:32.944Z</time></trkpt><trkpt lat="43.6098668" lon="11.8278543"><ele>485.0</ele><time>2026-04-06T08:32:33.989Z</time></trkpt><trkpt lat="43.6097463" lon="11.8278777"><ele>485.5</ele><time>2026-04-06T08:32:34.969Z</time></trkpt><trkpt lat="43.6096476" lon="11.827928"><ele>486.0</ele><time>2026-04-06T08:32:35.935Z</time></trkpt><trkpt lat="43.6095789" lon="11.8280323"><ele>485.75</ele><time>2026-04-06T08:32:36.971Z</time></trkpt><trkpt lat="43.6094766" lon="11.8281532"><ele>485.5</ele><time>2026-04-06T08:32:37.951Z</time></trkpt><trkpt lat="43.6093654" lon="11.8282253"><ele>485.25</ele><time>2026-04-06T08:32:38.957Z</time></trkpt><trkpt lat="43.609251" lon="11.8282593"><ele>485.0</ele><time>2026-04-06T08:32:39.927Z</time></trkpt><trkpt lat="43.6091586" lon="11.8282863"><ele>484.99999999999994</ele><time>2026-04-06T08:32:40.934Z</time></trkpt><trkpt lat="43.6090852" lon="11.8283328"><ele>485.0</ele><time>2026-04-06T08:32:41.949Z</time></trkpt><trkpt lat="43.6090628" lon="11.8284293"><ele>485.0</ele><time>2026-04-06T08:32:42.934Z</time></trkpt><trkpt lat="43.6090451" lon="11.8285353"><ele>485.0</ele><time>2026-04-06T08:32:43.925Z</time></trkpt><trkpt lat="43.6090688" lon="11.8286491"><ele>484.99999999999994</ele><time>2026-04-06T08:32:44.94Z</time></trkpt><trkpt lat="43.6090741" lon="11.828764"><ele>485.0</ele><time>2026-04-06T08:32:45.925Z</time></trkpt><trkpt lat="43.6090939" lon="11.8288548"><ele>487.2</ele><time>2026-04-06T08:32:46.93Z</time></trkpt><trkpt lat="43.6090858" lon="11.8289725"><ele>489.4</ele><time>2026-04-06T08:32:47.926Z</time></trkpt><trkpt lat="43.6090502" lon="11.8290917"><ele>491.6</ele><time>2026-04-06T08:32:48.926Z</time></trkpt><trkpt lat="43.6090074" lon="11.8292481"><ele>493.8</ele><time>2026-04-06T08:32:49.923Z</time></trkpt><trkpt lat="43.6089582" lon="11.8294086"><ele>496.0</ele><time>2026-04-06T08:32:50.936Z</time></trkpt><trkpt lat="43.6089154" lon="11.8295855"><ele>497.4</ele><time>2026-04-06T08:32:52.004Z</time></trkpt><trkpt lat="43.6088718" lon="11.8297744"><ele>498.8</ele><time>2026-04-06T08:32:52.929Z</time></trkpt><trkpt lat="43.6088236" lon="11.8299284"><ele>500.19999999999993</ele><time>2026-04-06T08:32:53.928Z</time></trkpt><trkpt lat="43.6087867" lon="11.8300214"><ele>501.59999999999997</ele><time>2026-04-06T08:32:54.931Z</time></trkpt><trkpt lat="43.6087348" lon="11.8301043"><ele>503.0</ele><time>2026-04-06T08:32:55.96Z</time></trkpt><trkpt lat="43.6086683" lon="11.8301636"><ele>503.16666666666663</ele><time>2026-04-06T08:32:56.938Z</time></trkpt><trkpt lat="43.6086067" lon="11.8302116"><ele>503.3333333333333</ele><time>2026-04-06T08:32:57.954Z</time></trkpt><trkpt lat="43.6085351" lon="11.8302423"><ele>503.5</ele><time>2026-04-06T08:32:59.951Z</time></trkpt><trkpt lat="43.6085414" lon="11.8303388"><ele>503.66666666666663</ele><time>2026-04-06T08:33:02.951Z</time></trkpt><trkpt lat="43.608612" lon="11.8303637"><ele>503.8333333333333</ele><time>2026-04-06T08:33:03.947Z</time></trkpt><trkpt lat="43.6087356" lon="11.8303905"><ele>504.0</ele><time>2026-04-06T08:33:04.939Z</time></trkpt><trkpt lat="43.6088641" lon="11.8304595"><ele>504.0</ele><time>2026-04-06T08:33:05.93Z</time></trkpt><trkpt lat="43.6089802" lon="11.8305095"><ele>504.0</ele><time>2026-04-06T08:33:06.933Z</time></trkpt><trkpt lat="43.6091" lon="11.8305129"><ele>504.0</ele><time>2026-04-06T08:33:07.948Z</time></trkpt><trkpt lat="43.6092296" lon="11.8305084"><ele>504.0</ele><time>2026-04-06T08:33:08.942Z</time></trkpt><trkpt lat="43.6093602" lon="11.8305492"><ele>504.0</ele><time>2026-04-06T08:33:09.918Z</time></trkpt><trkpt lat="43.6094624" lon="11.8306081"><ele>504.0</ele><time>2026-04-06T08:33:10.936Z</time></trkpt><trkpt lat="43.6095629" lon="11.8306729"><ele>504.0</ele><time>2026-04-06T08:33:11.925Z</time></trkpt><trkpt lat="43.6096756" lon="11.8307361"><ele>504.0</ele><time>2026-04-06T08:33:12.93Z</time></trkpt><trkpt lat="43.6097858" lon="11.8308048"><ele>504.75</ele><time>2026-04-06T08:33:13.94Z</time></trkpt><trkpt lat="43.6099189" lon="11.830858"><ele>505.5</ele><time>2026-04-06T08:33:14.939Z</time></trkpt><trkpt lat="43.6100556" lon="11.8309197"><ele>506.25</ele><time>2026-04-06T08:33:15.932Z</time></trkpt><trkpt lat="43.6101743" lon="11.8309962"><ele>507.0</ele><time>2026-04-06T08:33:16.926Z</time></trkpt><trkpt lat="43.6102804" lon="11.8310799"><ele>508.6</ele><time>2026-04-06T08:33:17.945Z</time></trkpt><trkpt lat="43.6103699" lon="11.8311442"><ele>510.20000000000005</ele><time>2026-04-06T08:33:18.966Z</time></trkpt><trkpt lat="43.6104798" lon="11.8311491"><ele>511.8</ele><time>2026-04-06T08:33:19.945Z</time></trkpt><trkpt lat="43.6105834" lon="11.8311524"><ele>513.4</ele><time>2026-04-06T08:33:20.928Z</time></trkpt><trkpt lat="43.6106758" lon="11.8312051"><ele>515.0</ele><time>2026-04-06T08:33:21.944Z</time></trkpt><trkpt lat="43.6107734" lon="11.8312542"><ele>515.0</ele><time>2026-04-06T08:33:22.942Z</time></trkpt><trkpt lat="43.6108946" lon="11.8312553"><ele>515.0</ele><time>2026-04-06T08:33:23.927Z</time></trkpt><trkpt lat="43.6110059" lon="11.8312499"><ele>515.0</ele><time>2026-04-06T08:33:24.943Z</time></trkpt><trkpt lat="43.6111053" lon="11.8312627"><ele>515.0</ele><time>2026-04-06T08:33:25.932Z</time></trkpt><trkpt lat="43.6112119" lon="11.8313037"><ele>515.0</ele><time>2026-04-06T08:33:27.931Z</time></trkpt><trkpt lat="43.6113076" lon="11.831265"><ele>516.25</ele><time>2026-04-06T08:33:28.949Z</time></trkpt><trkpt lat="43.6114259" lon="11.8312399"><ele>517.5</ele><time>2026-04-06T08:33:29.944Z</time></trkpt><trkpt lat="43.6115362" lon="11.8312297"><ele>518.75</ele><time>2026-04-06T08:33:30.925Z</time></trkpt><trkpt lat="43.6116454" lon="11.8311941"><ele>520.0</ele><time>2026-04-06T08:33:31.945Z</time></trkpt><trkpt lat="43.6117455" lon="11.8311227"><ele>520.0</ele><time>2026-04-06T08:33:32.94Z</time></trkpt><trkpt lat="43.6118222" lon="11.8310695"><ele>520.0</ele><time>2026-04-06T08:33:33.923Z</time></trkpt><trkpt lat="43.6119028" lon="11.8310457"><ele>520.0</ele><time>2026-04-06T08:33:34.938Z</time></trkpt><trkpt lat="43.6120005" lon="11.8310683"><ele>520.0</ele><time>2026-04-06T08:33:35.941Z</time></trkpt><trkpt lat="43.6121254" lon="11.831143"><ele>520.0</ele><time>2026-04-06T08:33:36.928Z</time></trkpt><trkpt lat="43.6122647" lon="11.8312408"><ele>521.8</ele><time>2026-04-06T08:33:37.944Z</time></trkpt><trkpt lat="43.6123886" lon="11.8313464"><ele>523.6</ele><time>2026-04-06T08:33:38.928Z</time></trkpt><trkpt lat="43.6124762" lon="11.8314404"><ele>525.4</ele><time>2026-04-06T08:33:39.935Z</time></trkpt><trkpt lat="43.6125524" lon="11.8315241"><ele>527.2</ele><time>2026-04-06T08:33:40.931Z</time></trkpt><trkpt lat="43.6126464" lon="11.8315479"><ele>529.0</ele><time>2026-04-06T08:33:41.927Z</time></trkpt><trkpt lat="43.6127221" lon="11.831562"><ele>529.0</ele><time>2026-04-06T08:33:42.939Z</time></trkpt><trkpt lat="43.6127857" lon="11.8316009"><ele>529.0</ele><time>2026-04-06T08:33:43.938Z</time></trkpt><trkpt lat="43.612834" lon="11.8316933"><ele>529.0</ele><time>2026-04-06T08:33:44.933Z</time></trkpt><trkpt lat="43.6129079" lon="11.8318398"><ele>529.0</ele><time>2026-04-06T08:33:45.933Z</time></trkpt><trkpt lat="43.6129932" lon="11.8319433"><ele>529.0</ele><time>2026-04-06T08:33:46.932Z</time></trkpt><trkpt lat="43.6130911" lon="11.8319896"><ele>528.2</ele><time>2026-04-06T08:33:47.941Z</time></trkpt><trkpt lat="43.6131631" lon="11.8320065"><ele>527.4</ele><time>2026-04-06T08:33:48.98Z</time></trkpt><trkpt lat="43.6132359" lon="11.8320021"><ele>526.6</ele><time>2026-04-06T08:33:49.937Z</time></trkpt><trkpt lat="43.6133417" lon="11.8320751"><ele>525.8</ele><time>2026-04-06T08:33:51.972Z</time></trkpt><trkpt lat="43.613361" lon="11.8321893"><ele>525.0</ele><time>2026-04-06T08:33:52.936Z</time></trkpt><trkpt lat="43.6133968" lon="11.8323557"><ele>525.0</ele><time>2026-04-06T08:33:53.934Z</time></trkpt><trkpt lat="43.6134702" lon="11.8325268"><ele>525.0</ele><time>2026-04-06T08:33:54.953Z</time></trkpt><trkpt lat="43.6135507" lon="11.8326226"><ele>525.0</ele><time>2026-04-06T08:33:55.94Z</time></trkpt><trkpt lat="43.6136249" lon="11.8327027"><ele>525.0</ele><time>2026-04-06T08:33:56.926Z</time></trkpt><trkpt lat="43.6136928" lon="11.832789"><ele>525.0</ele><time>2026-04-06T08:33:57.934Z</time></trkpt><trkpt lat="43.6137617" lon="11.8329012"><ele>524.25</ele><time>2026-04-06T08:33:58.931Z</time></trkpt><trkpt lat="43.6138355" lon="11.8330655"><ele>523.5</ele><time>2026-04-06T08:33:59.93Z</time></trkpt><trkpt lat="43.613896" lon="11.8332415"><ele>522.75</ele><time>2026-04-06T08:34:00.925Z</time></trkpt><trkpt lat="43.6139427" lon="11.8334092"><ele>522.0</ele><time>2026-04-06T08:34:01.928Z</time></trkpt><trkpt lat="43.6139707" lon="11.8335359"><ele>521.6</ele><time>2026-04-06T08:34:02.936Z</time></trkpt><trkpt lat="43.6140188" lon="11.8336584"><ele>521.2</ele><time>2026-04-06T08:34:03.933Z</time></trkpt><trkpt lat="43.6140601" lon="11.8337648"><ele>520.8</ele><time>2026-04-06T08:34:04.926Z</time></trkpt><trkpt lat="43.6140971" lon="11.8338905"><ele>520.4</ele><time>2026-04-06T08:34:05.931Z</time></trkpt><trkpt lat="43.614117" lon="11.8340738"><ele>520.0</ele><time>2026-04-06T08:34:06.923Z</time></trkpt><trkpt lat="43.6141566" lon="11.8342581"><ele>519.0</ele><time>2026-04-06T08:34:07.948Z</time></trkpt><trkpt lat="43.6141969" lon="11.8344028"><ele>518.0</ele><time>2026-04-06T08:34:08.937Z</time></trkpt><trkpt lat="43.6142426" lon="11.8345227"><ele>517.0</ele><time>2026-04-06T08:34:09.976Z</time></trkpt><trkpt lat="43.6142766" lon="11.8346384"><ele>516.0</ele><time>2026-04-06T08:34:10.953Z</time></trkpt><trkpt lat="43.6142903" lon="11.8347547"><ele>515.0</ele><time>2026-04-06T08:34:11.956Z</time></trkpt><trkpt lat="43.6143057" lon="11.8348694"><ele>515.0</ele><time>2026-04-06T08:34:12.956Z</time></trkpt><trkpt lat="43.6143507" lon="11.8349719"><ele>515.0</ele><time>2026-04-06T08:34:13.964Z</time></trkpt><trkpt lat="43.6144137" lon="11.8350937"><ele>515.0</ele><time>2026-04-06T08:34:14.969Z</time></trkpt><trkpt lat="43.6144596" lon="11.8352464"><ele>515.0</ele><time>2026-04-06T08:34:15.951Z</time></trkpt><trkpt lat="43.6144998" lon="11.8353966"><ele>515.0</ele><time>2026-04-06T08:34:16.945Z</time></trkpt><trkpt lat="43.6145384" lon="11.8355633"><ele>513.6666666666666</ele><time>2026-04-06T08:34:18.065Z</time></trkpt><trkpt lat="43.6145515" lon="11.8357436"><ele>512.3333333333334</ele><time>2026-04-06T08:34:19.058Z</time></trkpt><trkpt lat="43.6145602" lon="11.8360115"><ele>511.0</ele><time>2026-04-06T08:34:21.197Z</time></trkpt><trkpt lat="43.6146565" lon="11.8362657"><ele>511.0</ele><time>2026-04-06T08:34:22.92Z</time></trkpt><trkpt lat="43.6147204" lon="11.8363731"><ele>511.0</ele><time>2026-04-06T08:34:23.987Z</time></trkpt><trkpt lat="43.6147551" lon="11.8365057"><ele>511.0</ele><time>2026-04-06T08:34:24.941Z</time></trkpt><trkpt lat="43.6147782" lon="11.8366519"><ele>511.0</ele><time>2026-04-06T08:34:25.926Z</time></trkpt><trkpt lat="43.6147937" lon="11.8367635"><ele>511.0</ele><time>2026-04-06T08:34:26.959Z</time></trkpt><trkpt lat="43.6148008" lon="11.8368821"><ele>511.8</ele><time>2026-04-06T08:34:27.931Z</time></trkpt><trkpt lat="43.6148121" lon="11.8370038"><ele>512.6</ele><time>2026-04-06T08:34:28.959Z</time></trkpt><trkpt lat="43.614856" lon="11.8370812"><ele>513.4</ele><time>2026-04-06T08:34:29.956Z</time></trkpt><trkpt lat="43.6149245" lon="11.8371349"><ele>514.2</ele><time>2026-04-06T08:34:30.973Z</time></trkpt><trkpt lat="43.6150003" lon="11.8372402"><ele>515.0</ele><time>2026-04-06T08:34:31.96Z</time></trkpt><trkpt lat="43.6150837" lon="11.8373378"><ele>515.0</ele><time>2026-04-06T08:34:32.955Z</time></trkpt><trkpt lat="43.61516" lon="11.8374222"><ele>515.0</ele><time>2026-04-06T08:34:33.927Z</time></trkpt><trkpt lat="43.6152231" lon="11.8375098"><ele>515.0</ele><time>2026-04-06T08:34:34.929Z</time></trkpt><trkpt lat="43.6152846" lon="11.8375663"><ele>515.0</ele><time>2026-04-06T08:34:35.941Z</time></trkpt><trkpt lat="43.6153795" lon="11.8375625"><ele>515.0</ele><time>2026-04-06T08:34:43.924Z</time></trkpt><trkpt lat="43.6154494" lon="11.8374849"><ele>515.0</ele><time>2026-04-06T08:34:45.929Z</time></trkpt><trkpt lat="43.6155523" lon="11.837448"><ele>514.2</ele><time>2026-04-06T08:34:47.935Z</time></trkpt><trkpt lat="43.6156395" lon="11.837422"><ele>513.4</ele><time>2026-04-06T08:34:48.93Z</time></trkpt><trkpt lat="43.6157481" lon="11.8373637"><ele>512.6</ele><time>2026-04-06T08:34:49.926Z</time></trkpt><trkpt lat="43.6158445" lon="11.8373364"><ele>511.8</ele><time>2026-04-06T08:34:50.923Z</time></trkpt><trkpt lat="43.6159264" lon="11.8373151"><ele>511.0</ele><time>2026-04-06T08:34:51.937Z</time></trkpt><trkpt lat="43.6159931" lon="11.837297"><ele>511.0</ele><time>2026-04-06T08:34:52.922Z</time></trkpt><trkpt lat="43.6160839" lon="11.837248"><ele>511.0</ele><time>2026-04-06T08:34:54.925Z</time></trkpt><trkpt lat="43.6162058" lon="11.8371913"><ele>511.0</ele><time>2026-04-06T08:34:56.93Z</time></trkpt><trkpt lat="43.6162968" lon="11.8371717"><ele>511.0</ele><time>2026-04-06T08:34:57.944Z</time></trkpt><trkpt lat="43.6163914" lon="11.8371432"><ele>511.0</ele><time>2026-04-06T08:34:58.94Z</time></trkpt><trkpt lat="43.6164847" lon="11.8371119"><ele>510.20000000000005</ele><time>2026-04-06T08:34:59.917Z</time></trkpt><trkpt lat="43.6165716" lon="11.8370533"><ele>509.40000000000003</ele><time>2026-04-06T08:35:00.934Z</time></trkpt><trkpt lat="43.6166628" lon="11.8370288"><ele>508.6</ele><time>2026-04-06T08:35:01.923Z</time></trkpt><trkpt lat="43.6167463" lon="11.8370397"><ele>507.8</ele><time>2026-04-06T08:35:02.935Z</time></trkpt><trkpt lat="43.6168307" lon="11.8370411"><ele>507.0</ele><time>2026-04-06T08:35:03.928Z</time></trkpt><trkpt lat="43.6169413" lon="11.8369879"><ele>507.40000000000003</ele><time>2026-04-06T08:35:04.923Z</time></trkpt><trkpt lat="43.6170679" lon="11.8369182"><ele>507.80000000000007</ele><time>2026-04-06T08:35:05.924Z</time></trkpt><trkpt lat="43.6171797" lon="11.8368784"><ele>508.2</ele><time>2026-04-06T08:35:06.93Z</time></trkpt><trkpt lat="43.6172734" lon="11.836845"><ele>508.6</ele><time>2026-04-06T08:35:07.926Z</time></trkpt><trkpt lat="43.6173431" lon="11.8367934"><ele>509.0</ele><time>2026-04-06T08:35:08.923Z</time></trkpt><trkpt lat="43.6174045" lon="11.8367524"><ele>509.3333333333333</ele><time>2026-04-06T08:35:09.916Z</time></trkpt><trkpt lat="43.6174686" lon="11.8367475"><ele>509.66666666666663</ele><time>2026-04-06T08:35:10.926Z</time></trkpt><trkpt lat="43.6175394" lon="11.836775"><ele>510.0</ele><time>2026-04-06T08:35:11.905Z</time></trkpt><trkpt lat="43.617604" lon="11.8367695"><ele>510.33333333333337</ele><time>2026-04-06T08:35:12.926Z</time></trkpt><trkpt lat="43.6177345" lon="11.8366791"><ele>510.6666666666667</ele><time>2026-04-06T08:35:14.928Z</time></trkpt><trkpt lat="43.6177978" lon="11.8366465"><ele>511.0</ele><time>2026-04-06T08:35:15.959Z</time></trkpt><trkpt lat="43.6178641" lon="11.8366123"><ele>511.0</ele><time>2026-04-06T08:35:16.924Z</time></trkpt><trkpt lat="43.6179684" lon="11.8365934"><ele>511.0</ele><time>2026-04-06T08:35:18.919Z</time></trkpt><trkpt lat="43.6180456" lon="11.8366422"><ele>511.0</ele><time>2026-04-06T08:35:20.919Z</time></trkpt><trkpt lat="43.6181231" lon="11.8367202"><ele>511.0</ele><time>2026-04-06T08:35:22.915Z</time></trkpt><trkpt lat="43.6181729" lon="11.8368367"><ele>511.0</ele><time>2026-04-06T08:35:24.926Z</time></trkpt><trkpt lat="43.6182568" lon="11.836953"><ele>510.4</ele><time>2026-04-06T08:35:26.935Z</time></trkpt><trkpt lat="43.6183461" lon="11.8370464"><ele>509.8</ele><time>2026-04-06T08:35:28.929Z</time></trkpt><trkpt lat="43.6184229" lon="11.8371372"><ele>509.19999999999993</ele><time>2026-04-06T08:35:30.942Z</time></trkpt><trkpt lat="43.6184978" lon="11.8372209"><ele>508.59999999999997</ele><time>2026-04-06T08:35:32.921Z</time></trkpt><trkpt lat="43.6185777" lon="11.8372951"><ele>508.0</ele><time>2026-04-06T08:35:34.923Z</time></trkpt><trkpt lat="43.6186805" lon="11.837354"><ele>505.83333333333337</ele><time>2026-04-06T08:35:36.929Z</time></trkpt><trkpt lat="43.6187763" lon="11.8374254"><ele>503.6666666666667</ele><time>2026-04-06T08:35:38.925Z</time></trkpt><trkpt lat="43.618829" lon="11.8375217"><ele>501.5</ele><time>2026-04-06T08:35:39.933Z</time></trkpt><trkpt lat="43.618881" lon="11.8376389"><ele>499.33333333333337</ele><time>2026-04-06T08:35:40.927Z</time></trkpt><trkpt lat="43.6189166" lon="11.8377398"><ele>497.1666666666667</ele><time>2026-04-06T08:35:41.919Z</time></trkpt><trkpt lat="43.6189435" lon="11.8378299"><ele>495.0</ele><time>2026-04-06T08:35:42.921Z</time></trkpt><trkpt lat="43.6189766" lon="11.8379829"><ele>494.5</ele><time>2026-04-06T08:35:44.935Z</time></trkpt><trkpt lat="43.6190329" lon="11.8381535"><ele>494.0</ele><time>2026-04-06T08:35:46.946Z</time></trkpt><trkpt lat="43.6190711" lon="11.8382507"><ele>493.5</ele><time>2026-04-06T08:35:47.926Z</time></trkpt><trkpt lat="43.6191126" lon="11.8383462"><ele>493.0</ele><time>2026-04-06T08:35:48.924Z</time></trkpt><trkpt lat="43.6191508" lon="11.8384339"><ele>492.5</ele><time>2026-04-06T08:35:49.926Z</time></trkpt><trkpt lat="43.6192029" lon="11.8385156"><ele>492.0</ele><time>2026-04-06T08:35:50.942Z</time></trkpt><trkpt lat="43.6192538" lon="11.8386023"><ele>490.28571428571433</ele><time>2026-04-06T08:35:51.941Z</time></trkpt><trkpt lat="43.6193079" lon="11.8386782"><ele>488.57142857142856</ele><time>2026-04-06T08:35:52.962Z</time></trkpt><trkpt lat="43.6193536" lon="11.8387441"><ele>486.8571428571429</ele><time>2026-04-06T08:35:53.962Z</time></trkpt><trkpt lat="43.6194123" lon="11.8387982"><ele>485.14285714285717</ele><time>2026-04-06T08:35:54.93Z</time></trkpt><trkpt lat="43.6194695" lon="11.8388568"><ele>483.42857142857144</ele><time>2026-04-06T08:35:55.923Z</time></trkpt><trkpt lat="43.6195328" lon="11.8389259"><ele>481.7142857142857</ele><time>2026-04-06T08:35:56.932Z</time></trkpt><trkpt lat="43.6195806" lon="11.8390096"><ele>480.0</ele><time>2026-04-06T08:35:57.922Z</time></trkpt><trkpt lat="43.6196217" lon="11.8390888"><ele>479.8333333333333</ele><time>2026-04-06T08:35:58.927Z</time></trkpt><trkpt lat="43.619658" lon="11.8391637"><ele>479.66666666666663</ele><time>2026-04-06T08:35:59.929Z</time></trkpt><trkpt lat="43.6196943" lon="11.8392412"><ele>479.5</ele><time>2026-04-06T08:36:00.944Z</time></trkpt><trkpt lat="43.6197361" lon="11.8393177"><ele>479.3333333333333</ele><time>2026-04-06T08:36:01.92Z</time></trkpt><trkpt lat="43.6198076" lon="11.8393985"><ele>479.16666666666663</ele><time>2026-04-06T08:36:02.916Z</time></trkpt><trkpt lat="43.6198743" lon="11.8394824"><ele>479.0</ele><time>2026-04-06T08:36:03.936Z</time></trkpt><trkpt lat="43.6199336" lon="11.8395593"><ele>479.0</ele><time>2026-04-06T08:36:04.94Z</time></trkpt><trkpt lat="43.619978" lon="11.8396254"><ele>479.0</ele><time>2026-04-06T08:36:07.987Z</time></trkpt><trkpt lat="43.6199494" lon="11.8397156"><ele>479.0</ele><time>2026-04-06T08:36:11.939Z</time></trkpt><trkpt lat="43.6199066" lon="11.8398041"><ele>479.0</ele><time>2026-04-06T08:36:13.938Z</time></trkpt><trkpt lat="43.6198748" lon="11.8399442"><ele>479.0</ele><time>2026-04-06T08:36:15.932Z</time></trkpt><trkpt lat="43.6197909" lon="11.84025"><ele>476.66666666666663</ele><time>2026-04-06T08:36:19.926Z</time></trkpt><trkpt lat="43.6197676" lon="11.8403353"><ele>474.3333333333333</ele><time>2026-04-06T08:36:20.962Z</time></trkpt><trkpt lat="43.6197456" lon="11.8404198"><ele>472.0</ele><time>2026-04-06T08:36:21.948Z</time></trkpt><trkpt lat="43.6197202" lon="11.8405675"><ele>469.66666666666663</ele><time>2026-04-06T08:36:23.948Z</time></trkpt><trkpt lat="43.6197158" lon="11.8406691"><ele>467.3333333333333</ele><time>2026-04-06T08:36:25.95Z</time></trkpt><trkpt lat="43.619701" lon="11.8407813"><ele>465.0</ele><time>2026-04-06T08:36:27.934Z</time></trkpt><trkpt lat="43.6197018" lon="11.8408953"><ele>462.2</ele><time>2026-04-06T08:36:29.977Z</time></trkpt><trkpt lat="43.6196918" lon="11.8410934"><ele>459.4</ele><time>2026-04-06T08:36:31.951Z</time></trkpt><trkpt lat="43.6196791" lon="11.8412128"><ele>456.6</ele><time>2026-04-06T08:36:32.947Z</time></trkpt><trkpt lat="43.6196734" lon="11.8413226"><ele>453.8</ele><time>2026-04-06T08:36:33.934Z</time></trkpt><trkpt lat="43.619656" lon="11.8414453"><ele>451.0</ele><time>2026-04-06T08:36:34.94Z</time></trkpt><trkpt lat="43.6196362" lon="11.8415712"><ele>451.0</ele><time>2026-04-06T08:36:35.95Z</time></trkpt><trkpt lat="43.619612" lon="11.8416971"><ele>451.0</ele><time>2026-04-06T08:36:36.946Z</time></trkpt><trkpt lat="43.6195907" lon="11.8418092"><ele>451.0</ele><time>2026-04-06T08:36:37.939Z</time></trkpt><trkpt lat="43.6195626" lon="11.8419566"><ele>451.0</ele><time>2026-04-06T08:36:38.931Z</time></trkpt><trkpt lat="43.6195295" lon="11.842079"><ele>451.0</ele><time>2026-04-06T08:36:39.945Z</time></trkpt><trkpt lat="43.6195006" lon="11.842188"><ele>448.7142857142857</ele><time>2026-04-06T08:36:40.942Z</time></trkpt><trkpt lat="43.6194814" lon="11.8422917"><ele>446.42857142857144</ele><time>2026-04-06T08:36:41.949Z</time></trkpt><trkpt lat="43.619456" lon="11.8423833"><ele>444.14285714285717</ele><time>2026-04-06T08:36:42.935Z</time></trkpt><trkpt lat="43.619438" lon="11.8424706"><ele>441.8571428571429</ele><time>2026-04-06T08:36:43.964Z</time></trkpt><trkpt lat="43.6194175" lon="11.8425604"><ele>439.57142857142856</ele><time>2026-04-06T08:36:44.937Z</time></trkpt><trkpt lat="43.6193991" lon="11.842665"><ele>437.28571428571433</ele><time>2026-04-06T08:36:46.922Z</time></trkpt><trkpt lat="43.6193732" lon="11.8427549"><ele>435.0</ele><time>2026-04-06T08:36:48.93Z</time></trkpt><trkpt lat="43.6193419" lon="11.8428636"><ele>433.3333333333333</ele><time>2026-04-06T08:36:51.943Z</time></trkpt><trkpt lat="43.6193177" lon="11.84298"><ele>431.66666666666663</ele><time>2026-04-06T08:36:54.933Z</time></trkpt><trkpt lat="43.6192562" lon="11.8430869"><ele>430.0</ele><time>2026-04-06T08:36:57.936Z</time></trkpt><trkpt lat="43.6192024" lon="11.8431355"><ele>428.3333333333333</ele><time>2026-04-06T08:36:58.928Z</time></trkpt><trkpt lat="43.6191018" lon="11.8432016"><ele>426.66666666666663</ele><time>2026-04-06T08:37:00.931Z</time></trkpt><trkpt lat="43.6190251" lon="11.8432516"><ele>425.0</ele><time>2026-04-06T08:37:02.937Z</time></trkpt><trkpt lat="43.6189578" lon="11.8433154"><ele>425.0</ele><time>2026-04-06T08:37:04.936Z</time></trkpt><trkpt lat="43.6188909" lon="11.8433712"><ele>425.0</ele><time>2026-04-06T08:37:06.938Z</time></trkpt><trkpt lat="43.6188249" lon="11.8434607"><ele>425.0</ele><time>2026-04-06T08:37:08.92Z</time></trkpt><trkpt lat="43.6187919" lon="11.8435928"><ele>425.0</ele><time>2026-04-06T08:37:10.933Z</time></trkpt><trkpt lat="43.6187759" lon="11.8437263"><ele>425.0</ele><time>2026-04-06T08:37:12.931Z</time></trkpt><trkpt lat="43.6187224" lon="11.8438248"><ele>419.4</ele><time>2026-04-06T08:37:14.931Z</time></trkpt><trkpt lat="43.6186352" lon="11.8438775"><ele>413.8</ele><time>2026-04-06T08:37:16.929Z</time></trkpt><trkpt lat="43.6185458" lon="11.8439055"><ele>408.20000000000005</ele><time>2026-04-06T08:37:18.933Z</time></trkpt><trkpt lat="43.6184532" lon="11.8438645"><ele>402.6</ele><time>2026-04-06T08:37:20.931Z</time></trkpt><trkpt lat="43.6183715" lon="11.8438091"><ele>397.0</ele><time>2026-04-06T08:37:22.936Z</time></trkpt><trkpt lat="43.6182982" lon="11.8437775"><ele>397.00000000000006</ele><time>2026-04-06T08:37:24.925Z</time></trkpt><trkpt lat="43.6182266" lon="11.8438036"><ele>397.0</ele><time>2026-04-06T08:37:26.929Z</time></trkpt><trkpt lat="43.6181576" lon="11.8438415"><ele>397.0</ele><time>2026-04-06T08:37:28.929Z</time></trkpt><trkpt lat="43.6180927" lon="11.8439149"><ele>397.0</ele><time>2026-04-06T08:37:30.933Z</time></trkpt><trkpt lat="43.6180611" lon="11.8440537"><ele>397.00000000000006</ele><time>2026-04-06T08:37:32.934Z</time></trkpt><trkpt lat="43.6181009" lon="11.8441978"><ele>397.0</ele><time>2026-04-06T08:37:34.92Z</time></trkpt><trkpt lat="43.6181538" lon="11.8443365"><ele>394.20000000000005</ele><time>2026-04-06T08:37:36.936Z</time></trkpt><trkpt lat="43.618215" lon="11.8444634"><ele>391.4</ele><time>2026-04-06T08:37:38.93Z</time></trkpt><trkpt lat="43.6182672" lon="11.8445656"><ele>388.6</ele><time>2026-04-06T08:37:40.933Z</time></trkpt><trkpt lat="43.6182582" lon="11.8446995"><ele>385.79999999999995</ele><time>2026-04-06T08:37:42.956Z</time></trkpt><trkpt lat="43.6182612" lon="11.8448035"><ele>383.0</ele><time>2026-04-06T08:37:44.94Z</time></trkpt><trkpt lat="43.6183084" lon="11.8449151"><ele>383.0</ele><time>2026-04-06T08:37:46.934Z</time></trkpt><trkpt lat="43.6183915" lon="11.84506"><ele>383.0</ele><time>2026-04-06T08:37:48.924Z</time></trkpt><trkpt lat="43.6184279" lon="11.8451614"><ele>383.0</ele><time>2026-04-06T08:37:49.919Z</time></trkpt><trkpt lat="43.6184347" lon="11.8452738"><ele>383.0</ele><time>2026-04-06T08:37:50.92Z</time></trkpt><trkpt lat="43.6183843" lon="11.8453889"><ele>383.0</ele><time>2026-04-06T08:37:52.957Z</time></trkpt><trkpt lat="43.6182953" lon="11.8453578"><ele>381.1666666666667</ele><time>2026-04-06T08:37:54.923Z</time></trkpt><trkpt lat="43.6182148" lon="11.8453527"><ele>379.33333333333337</ele><time>2026-04-06T08:37:56.924Z</time></trkpt><trkpt lat="43.6181761" lon="11.845435"><ele>377.5</ele><time>2026-04-06T08:37:57.937Z</time></trkpt><trkpt lat="43.6181265" lon="11.8455347"><ele>375.6666666666667</ele><time>2026-04-06T08:37:58.925Z</time></trkpt><trkpt lat="43.6180955" lon="11.8456238"><ele>373.8333333333333</ele><time>2026-04-06T08:37:59.928Z</time></trkpt><trkpt lat="43.6180586" lon="11.8457808"><ele>372.0</ele><time>2026-04-06T08:38:01.945Z</time></trkpt><trkpt lat="43.6179721" lon="11.8458702"><ele>372.0</ele><time>2026-04-06T08:38:03.926Z</time></trkpt><trkpt lat="43.6178895" lon="11.8459402"><ele>372.0</ele><time>2026-04-06T08:38:05.927Z</time></trkpt><trkpt lat="43.6178394" lon="11.8460389"><ele>372.0</ele><time>2026-04-06T08:38:07.921Z</time></trkpt><trkpt lat="43.6177787" lon="11.8461196"><ele>372.0</ele><time>2026-04-06T08:38:09.935Z</time></trkpt><trkpt lat="43.6177035" lon="11.8461405"><ele>372.0</ele><time>2026-04-06T08:38:11.927Z</time></trkpt><trkpt lat="43.6176662" lon="11.8460316"><ele>372.0</ele><time>2026-04-06T08:38:13.931Z</time></trkpt><trkpt lat="43.6176002" lon="11.8459208"><ele>369.8</ele><time>2026-04-06T08:38:15.934Z</time></trkpt><trkpt lat="43.6175091" lon="11.8458384"><ele>367.6</ele><time>2026-04-06T08:38:17.927Z</time></trkpt><trkpt lat="43.6174123" lon="11.8457866"><ele>365.40000000000003</ele><time>2026-04-06T08:38:19.945Z</time></trkpt><trkpt lat="43.6173068" lon="11.8457476"><ele>363.20000000000005</ele><time>2026-04-06T08:38:21.921Z</time></trkpt><trkpt lat="43.6172043" lon="11.8457826"><ele>361.0</ele><time>2026-04-06T08:38:23.926Z</time></trkpt><trkpt lat="43.6171481" lon="11.845848"><ele>361.0</ele><time>2026-04-06T08:38:24.922Z</time></trkpt><trkpt lat="43.6170925" lon="11.845898"><ele>361.0</ele><time>2026-04-06T08:38:25.928Z</time></trkpt><trkpt lat="43.6170334" lon="11.8459335"><ele>361.0</ele><time>2026-04-06T08:38:26.932Z</time></trkpt><trkpt lat="43.6169704" lon="11.8459475"><ele>361.0</ele><time>2026-04-06T08:38:27.921Z</time></trkpt><trkpt lat="43.6168566" lon="11.8459803"><ele>361.0</ele><time>2026-04-06T08:38:29.932Z</time></trkpt><trkpt lat="43.6167531" lon="11.8459792"><ele>361.0</ele><time>2026-04-06T08:38:31.93Z</time></trkpt><trkpt lat="43.6166718" lon="11.8459163"><ele>356.8</ele><time>2026-04-06T08:38:33.935Z</time></trkpt><trkpt lat="43.6165654" lon="11.8458388"><ele>352.6</ele><time>2026-04-06T08:38:35.928Z</time></trkpt><trkpt lat="43.61649" lon="11.8457267"><ele>348.4</ele><time>2026-04-06T08:38:37.936Z</time></trkpt><trkpt lat="43.6164636" lon="11.8456382"><ele>344.2</ele><time>2026-04-06T08:38:38.931Z</time></trkpt><trkpt lat="43.6164369" lon="11.8455399"><ele>340.0</ele><time>2026-04-06T08:38:39.927Z</time></trkpt><trkpt lat="43.6163991" lon="11.8454415"><ele>340.0</ele><time>2026-04-06T08:38:40.932Z</time></trkpt><trkpt lat="43.6163556" lon="11.8453299"><ele>340.0</ele><time>2026-04-06T08:38:41.947Z</time></trkpt><trkpt lat="43.6163146" lon="11.8452259"><ele>340.0</ele><time>2026-04-06T08:38:42.94Z</time></trkpt><trkpt lat="43.6162801" lon="11.8451372"><ele>340.0</ele><time>2026-04-06T08:38:43.979Z</time></trkpt><trkpt lat="43.6162065" lon="11.8450028"><ele>340.0</ele><time>2026-04-06T08:38:45.93Z</time></trkpt><trkpt lat="43.6161553" lon="11.8448294"><ele>336.4</ele><time>2026-04-06T08:38:47.941Z</time></trkpt><trkpt lat="43.6161216" lon="11.844667"><ele>332.8</ele><time>2026-04-06T08:38:49.947Z</time></trkpt><trkpt lat="43.6161049" lon="11.8445171"><ele>329.20000000000005</ele><time>2026-04-06T08:38:51.931Z</time></trkpt><trkpt lat="43.616078" lon="11.844415"><ele>325.6</ele><time>2026-04-06T08:38:53.945Z</time></trkpt><trkpt lat="43.61601" lon="11.8444061"><ele>322.0</ele><time>2026-04-06T08:38:55.932Z</time></trkpt><trkpt lat="43.6159392" lon="11.8444589"><ele>322.0</ele><time>2026-04-06T08:38:56.959Z</time></trkpt><trkpt lat="43.6158692" lon="11.8445102"><ele>322.0</ele><time>2026-04-06T08:38:57.936Z</time></trkpt><trkpt lat="43.6158044" lon="11.8445773"><ele>322.0</ele><time>2026-04-06T08:38:58.936Z</time></trkpt><trkpt lat="43.6157242" lon="11.8446687"><ele>322.0</ele><time>2026-04-06T08:38:59.931Z</time></trkpt><trkpt lat="43.6156366" lon="11.8447737"><ele>322.0</ele><time>2026-04-06T08:39:00.931Z</time></trkpt><trkpt lat="43.6155508" lon="11.8448781"><ele>322.0</ele><time>2026-04-06T08:39:01.93Z</time></trkpt><trkpt lat="43.6154745" lon="11.8449945"><ele>322.0</ele><time>2026-04-06T08:39:02.934Z</time></trkpt><trkpt lat="43.6154105" lon="11.8451017"><ele>322.0</ele><time>2026-04-06T08:39:03.928Z</time></trkpt><trkpt lat="43.615338" lon="11.8451993"><ele>322.0</ele><time>2026-04-06T08:39:04.918Z</time></trkpt><trkpt lat="43.6152737" lon="11.845297"><ele>322.0</ele><time>2026-04-06T08:39:05.951Z</time></trkpt><trkpt lat="43.6152256" lon="11.845403"><ele>319.66666666666663</ele><time>2026-04-06T08:39:06.917Z</time></trkpt><trkpt lat="43.6151903" lon="11.8455116"><ele>317.3333333333333</ele><time>2026-04-06T08:39:07.919Z</time></trkpt><trkpt lat="43.615158" lon="11.8456085"><ele>315.0</ele><time>2026-04-06T08:39:08.937Z</time></trkpt><trkpt lat="43.6151305" lon="11.8456908"><ele>312.6666666666667</ele><time>2026-04-06T08:39:09.917Z</time></trkpt><trkpt lat="43.6150427" lon="11.8457882"><ele>310.33333333333337</ele><time>2026-04-06T08:39:11.931Z</time></trkpt><trkpt lat="43.6149689" lon="11.8457981"><ele>308.0</ele><time>2026-04-06T08:39:12.925Z</time></trkpt><trkpt lat="43.6149035" lon="11.8458079"><ele>308.0</ele><time>2026-04-06T08:39:13.923Z</time></trkpt><trkpt lat="43.6147976" lon="11.8457878"><ele>308.0</ele><time>2026-04-06T08:39:15.929Z</time></trkpt><trkpt lat="43.614715" lon="11.8457539"><ele>308.0</ele><time>2026-04-06T08:39:17.929Z</time></trkpt><trkpt lat="43.6146098" lon="11.8457783"><ele>308.0</ele><time>2026-04-06T08:39:19.921Z</time></trkpt><trkpt lat="43.6145197" lon="11.8458567"><ele>308.0</ele><time>2026-04-06T08:39:21.924Z</time></trkpt><trkpt lat="43.6144287" lon="11.8459464"><ele>305.6</ele><time>2026-04-06T08:39:23.922Z</time></trkpt><trkpt lat="43.6143577" lon="11.8460559"><ele>303.20000000000005</ele><time>2026-04-06T08:39:25.931Z</time></trkpt><trkpt lat="43.6143551" lon="11.8462044"><ele>300.8</ele><time>2026-04-06T08:39:27.925Z</time></trkpt><trkpt lat="43.6143848" lon="11.8463147"><ele>298.40000000000003</ele><time>2026-04-06T08:39:28.92Z</time></trkpt><trkpt lat="43.6144221" lon="11.8464523"><ele>296.0</ele><time>2026-04-06T08:39:29.915Z</time></trkpt><trkpt lat="43.6144641" lon="11.8466011"><ele>297.75</ele><time>2026-04-06T08:39:30.919Z</time></trkpt><trkpt lat="43.6145107" lon="11.8467611"><ele>299.5</ele><time>2026-04-06T08:39:31.916Z</time></trkpt><trkpt lat="43.6145564" lon="11.8469238"><ele>301.25</ele><time>2026-04-06T08:39:32.923Z</time></trkpt><trkpt lat="43.6146017" lon="11.8470835"><ele>303.0</ele><time>2026-04-06T08:39:33.926Z</time></trkpt><trkpt lat="43.6146443" lon="11.8472321"><ele>303.0</ele><time>2026-04-06T08:39:34.923Z</time></trkpt><trkpt lat="43.6146813" lon="11.8473624"><ele>303.0</ele><time>2026-04-06T08:39:35.932Z</time></trkpt><trkpt lat="43.6147158" lon="11.8474878"><ele>303.0</ele><time>2026-04-06T08:39:36.916Z</time></trkpt><trkpt lat="43.6147528" lon="11.8476098"><ele>303.0</ele><time>2026-04-06T08:39:37.938Z</time></trkpt><trkpt lat="43.6147958" lon="11.847716"><ele>303.0</ele><time>2026-04-06T08:39:38.929Z</time></trkpt><trkpt lat="43.6148495" lon="11.8478163"><ele>301.4</ele><time>2026-04-06T08:39:39.938Z</time></trkpt><trkpt lat="43.6149132" lon="11.8479099"><ele>299.8</ele><time>2026-04-06T08:39:40.911Z</time></trkpt><trkpt lat="43.6149759" lon="11.8479952"><ele>298.2</ele><time>2026-04-06T08:39:41.919Z</time></trkpt><trkpt lat="43.615029" lon="11.8480688"><ele>296.6</ele><time>2026-04-06T08:39:42.925Z</time></trkpt><trkpt lat="43.615103" lon="11.8481823"><ele>295.0</ele><time>2026-04-06T08:39:44.928Z</time></trkpt><trkpt lat="43.6150832" lon="11.8483157"><ele>295.0</ele><time>2026-04-06T08:39:46.935Z</time></trkpt><trkpt lat="43.6150316" lon="11.8483956"><ele>295.0</ele><time>2026-04-06T08:39:47.928Z</time></trkpt><trkpt lat="43.6149654" lon="11.8484839"><ele>295.0</ele><time>2026-04-06T08:39:48.946Z</time></trkpt><trkpt lat="43.6149039" lon="11.8485775"><ele>295.0</ele><time>2026-04-06T08:39:49.926Z</time></trkpt><trkpt lat="43.614849" lon="11.8486697"><ele>295.0</ele><time>2026-04-06T08:39:50.929Z</time></trkpt><trkpt lat="43.6148059" lon="11.8487619"><ele>295.0</ele><time>2026-04-06T08:39:51.931Z</time></trkpt><trkpt lat="43.614789" lon="11.8488618"><ele>294.8</ele><time>2026-04-06T08:39:52.934Z</time></trkpt><trkpt lat="43.6147985" lon="11.8489698"><ele>294.6</ele><time>2026-04-06T08:39:53.929Z</time></trkpt><trkpt lat="43.6148303" lon="11.8490789"><ele>294.4</ele><time>2026-04-06T08:39:54.931Z</time></trkpt><trkpt lat="43.6148869" lon="11.8491807"><ele>294.2</ele><time>2026-04-06T08:39:55.92Z</time></trkpt><trkpt lat="43.6149605" lon="11.8492748"><ele>294.0</ele><time>2026-04-06T08:39:56.937Z</time></trkpt><trkpt lat="43.6150402" lon="11.8493694"><ele>294.0</ele><time>2026-04-06T08:39:57.924Z</time></trkpt><trkpt lat="43.6151232" lon="11.8494636"><ele>294.0</ele><time>2026-04-06T08:39:58.951Z</time></trkpt><trkpt lat="43.6152108" lon="11.8495591"><ele>294.0</ele><time>2026-04-06T08:39:59.92Z</time></trkpt><trkpt lat="43.6153046" lon="11.8496612"><ele>294.0</ele><time>2026-04-06T08:40:00.928Z</time></trkpt><trkpt lat="43.6154021" lon="11.8497718"><ele>293.4</ele><time>2026-04-06T08:40:01.927Z</time></trkpt><trkpt lat="43.615495" lon="11.8498755"><ele>292.79999999999995</ele><time>2026-04-06T08:40:02.928Z</time></trkpt><trkpt lat="43.6155813" lon="11.8499682"><ele>292.20000000000005</ele><time>2026-04-06T08:40:03.93Z</time></trkpt><trkpt lat="43.6156581" lon="11.8500544"><ele>291.6</ele><time>2026-04-06T08:40:04.936Z</time></trkpt><trkpt lat="43.6157287" lon="11.8501334"><ele>291.0</ele><time>2026-04-06T08:40:05.934Z</time></trkpt><trkpt lat="43.6157925" lon="11.8502044"><ele>291.0</ele><time>2026-04-06T08:40:06.925Z</time></trkpt><trkpt lat="43.6158546" lon="11.8502738"><ele>291.0</ele><time>2026-04-06T08:40:07.917Z</time></trkpt><trkpt lat="43.615922" lon="11.850345"><ele>291.0</ele><time>2026-04-06T08:40:08.961Z</time></trkpt><trkpt lat="43.6159935" lon="11.8504185"><ele>291.0</ele><time>2026-04-06T08:40:09.927Z</time></trkpt><trkpt lat="43.6160582" lon="11.8504899"><ele>291.0</ele><time>2026-04-06T08:40:10.933Z</time></trkpt><trkpt lat="43.6161136" lon="11.8505535"><ele>291.0</ele><time>2026-04-06T08:40:11.926Z</time></trkpt><trkpt lat="43.6161699" lon="11.8506447"><ele>286.0</ele><time>2026-04-06T08:40:13.936Z</time></trkpt></trkseg></trk></gpx>